| time (UTC) | temp C | wind direction | speed KPH | gust KPH | rain 1hr cm | rain 24hr cm | rain mn cm | humidity % | barometer mb |
| 20260505184022 | 2 | 335 | 4.8 | 6.4 | 0.00 | 3.86 | 1.32 | 96 | 1015.3 |
| 20260505183022 | 2 | 10 | 4.8 | 8.0 | 0.00 | 3.86 | 1.32 | 96 | 1015.3 |
| 20260505182019 | 2 | 29 | 4.8 | 9.7 | 0.00 | 3.89 | 1.32 | 96 | 1015.3 |
| 20260505181022 | 2 | 53 | 3.2 | 4.8 | 0.00 | 3.89 | 1.32 | 96 | 1015.4 |
| 20260505180022 | 2 | 42 | 3.2 | 6.4 | 0.00 | 3.89 | 1.32 | 95 | 1015.4 |
| 20260505175022 | 2 | 5 | 3.2 | 4.8 | 0.00 | 3.91 | 1.32 | 95 | 1015.6 |
| 20260505174019 | 2 | 45 | 4.8 | 8.0 | 0.00 | 3.91 | 1.32 | 95 | 1015.8 |
| 20260505173023 | 2 | 349 | 4.8 | 6.4 | 0.00 | 3.94 | 1.32 | 95 | 1015.9 |
| 20260505172023 | 2 | 358 | 1.6 | 4.8 | 0.00 | 3.96 | 1.32 | 95 | 1016.0 |
| 20260505171043 | 2 | 38 | 3.2 | 6.4 | 0.00 | 3.99 | 1.32 | 96 | 1015.9 |
| 20260505170022 | 2 | 344 | 1.6 | 4.8 | 0.00 | 3.99 | 1.32 | 96 | 1015.9 |
| 20260505165023 | 2 | 342 | 3.2 | 4.8 | 0.00 | 4.01 | 1.32 | 97 | 1016.0 |
| 20260505164024 | 2 | 350 | 3.2 | 4.8 | 0.00 | 4.04 | 1.32 | 97 | 1016.0 |
| 20260505163020 | 2 | 317 | 4.8 | 9.7 | 0.00 | 4.04 | 1.32 | 97 | 1016.0 |
| 20260505162103 | 2 | 316 | 3.2 | 6.4 | 0.00 | 4.04 | 1.32 | 97 | 1016.1 |
| 20260505161020 | 1 | 1 | 4.8 | 8.0 | 0.00 | 4.04 | 1.32 | 97 | 1016.2 |
| 20260505153044 | 1 | 312 | 4.8 | 6.4 | 0.00 | 4.04 | 1.32 | 97 | 1016.4 |
| 20260505152024 | 1 | 296 | 3.2 | 4.8 | 0.00 | 4.04 | 1.32 | 98 | 1016.5 |
| 20260505151024 | 1 | 320 | 3.2 | 6.4 | 0.00 | 4.04 | 1.32 | 98 | 1016.4 |
| 20260505125023 | 1 | 15 | 4.8 | 9.7 | 0.05 | 4.04 | 1.32 | 97 | 1015.7 |
| 20260505124023 | 1 | 354 | 6.4 | 11.3 | 0.05 | 4.04 | 1.32 | 97 | 1015.6 |
| 20260505123017 | 1 | 1 | 6.4 | 11.3 | 0.05 | 4.04 | 1.32 | 96 | 1015.5 |
| 20260505122026 | 1 | 12 | 4.8 | 6.4 | 0.05 | 4.04 | 1.30 | 96 | 1015.6 |
| 20260505121026 | 1 | 3 | 4.8 | 8.0 | 0.05 | 4.04 | 1.30 | 96 | 1015.4 |
| 20260505120017 | 1 | 3 | 4.8 | 11.3 | 0.00 | 3.99 | 1.27 | 96 | 1015.3 |
| 20260505115018 | 2 | 2 | 6.4 | 9.7 | 0.00 | 3.99 | 1.27 | 96 | 1015.3 |
| 20260505114018 | 2 | 7 | 6.4 | 11.3 | 0.00 | 3.99 | 1.27 | 95 | 1015.2 |
| 20260505113018 | 2 | 8 | 6.4 | 12.9 | 0.03 | 3.99 | 1.27 | 95 | 1015.1 |
| 20260505112038 | 2 | 359 | 6.4 | 12.9 | 0.10 | 3.99 | 1.24 | 94 | 1015.1 |
| 20260505111019 | 3 | 14 | 6.4 | 11.3 | 0.30 | 3.99 | 1.24 | 93 | 1015.0 |
| 20260505102019 | 4 | 26 | 17.7 | 49.9 | 0.94 | 3.89 | 1.14 | 94 | 1014.0 |
| 20260505101019 | 4 | 31 | 20.9 | 46.7 | 0.76 | 3.68 | 0.97 | 94 | 1014.0 |
| 20260505100019 | 4 | 35 | 11.3 | 17.7 | 0.56 | 3.48 | 0.76 | 94 | 1013.8 |
| 20260505095059 | 5 | 23 | 8.0 | 19.3 | 0.25 | 3.17 | 0.46 | 94 | 1013.6 |
| 20260505094016 | 5 | 37 | 9.7 | 35.4 | 0.00 | 2.95 | 0.20 | 95 | 1013.6 |
| 20260505093019 | 5 | 47 | 19.3 | 46.7 | 0.00 | 2.92 | 0.20 | 95 | 1013.6 |
| 20260505092019 | 5 | 47 | 17.7 | 41.8 | 0.03 | 2.92 | 0.20 | 95 | 1013.4 |
| 20260505091017 | 5 | 46 | 20.9 | 72.4 | 0.13 | 2.92 | 0.20 | 96 | 1013.3 |
| 20260505090037 | 6 | 46 | 20.9 | 67.6 | 0.15 | 2.92 | 0.20 | 96 | 1013.1 |
| 20260505085017 | 6 | 46 | 20.9 | 64.4 | 0.20 | 2.92 | 0.20 | 96 | 1013.2 |
| 20260505084020 | 6 | 46 | 12.9 | 29.0 | 0.20 | 2.92 | 0.20 | 95 | 1013.2 |
| 20260505083017 | 6 | 46 | 38.6 | 54.7 | 0.20 | 2.92 | 0.20 | 95 | 1013.2 |
| 20260505082037 | 6 | 44 | 37.0 | 53.1 | 0.18 | 2.90 | 0.18 | 94 | 1013.3 |
| 20260505081017 | 6 | 43 | 37.0 | 53.1 | 0.08 | 2.82 | 0.08 | 93 | 1013.4 |
| 20260505080038 | 7 | 44 | 37.0 | 53.1 | 0.05 | 2.79 | 0.05 | 91 | 1013.1 |
| 20260505075018 | 8 | 45 | 37.0 | 51.5 | 0.00 | 2.72 | 0.00 | 91 | 1013.2 |
| 20260505074018 | 8 | 45 | 11.3 | 41.8 | 0.00 | 2.72 | 0.00 | 92 | 1013.3 |
| 20260505073038 | 8 | 45 | 4.8 | 33.8 | 0.00 | 2.72 | 0.00 | 91 | 1013.1 |
| 20260505072030 | 8 | 46 | 1.6 | 1.6 | 0.00 | 2.72 | 0.00 | 93 | 1013.2 |
| 20260505071031 | 8 | 45 | 1.6 | 1.6 | 0.00 | 2.72 | 0.00 | 93 | 1013.1 |
| 20260505070031 | 8 | 46 | 1.6 | 1.6 | 0.00 | 2.72 | 0.00 | 92 | 1012.9 |
| 20260505065031 | 8 | 46 | 1.6 | 1.6 | 0.00 | 2.72 | 0.00 | 92 | 1013.0 |
| 20260505064031 | 8 | 46 | 1.6 | 1.6 | 0.00 | 2.72 | 0.00 | 92 | 1013.0 |
| 20260505063016 | 8 | 46 | 1.6 | 3.2 | 0.00 | 2.72 | 0.00 | 91 | 1013.0 |
| 20260505062031 | 8 | 44 | 1.6 | 1.6 | 0.00 | 2.72 | 0.00 | 91 | 1013.0 |
| 20260505061031 | 8 | 44 | 1.6 | 1.6 | 0.00 | 2.72 | 0.00 | 91 | 1013.1 |
| 20260505060031 | 8 | 42 | 1.6 | 3.2 | 0.00 | 2.72 | 0.00 | 90 | 1013.1 |
| 20260505055031 | 8 | 48 | 1.6 | 3.2 | 0.00 | 2.72 | 2.72 | 90 | 1013.2 |
| 20260505054032 | 8 | 46 | 1.6 | 1.6 | 0.00 | 2.72 | 2.72 | 90 | 1012.8 |
| 20260505053032 | 8 | 46 | 1.6 | 1.6 | 0.00 | 2.72 | 2.72 | 90 | 1012.8 |
| 20260505052017 | 8 | 44 | 1.6 | 1.6 | 0.00 | 2.72 | 2.72 | 91 | 1012.9 |
| 20260505051017 | 8 | 45 | 1.6 | 1.6 | 0.05 | 2.72 | 2.72 | 91 | 1012.9 |
| 20260505041018 | 9 | 240 | 9.7 | 19.3 | 1.07 | 2.69 | 2.69 | 89 | 1013.3 |
| 20260505040018 | 8 | 247 | 9.7 | 24.1 | 1.22 | 2.54 | 2.54 | 90 | 1013.2 |
| 20260505035016 | 8 | 242 | 12.9 | 22.5 | 1.27 | 2.44 | 2.44 | 89 | 1013.2 |
| 20260505034018 | 9 | 249 | 14.5 | 22.5 | 1.12 | 2.26 | 2.26 | 89 | 1013.4 |
| 20260505033018 | 9 | 247 | 14.5 | 20.9 | 0.99 | 2.13 | 2.13 | 88 | 1013.3 |
| 20260505032019 | 9 | 262 | 12.9 | 22.5 | 0.76 | 1.91 | 1.91 | 86 | 1013.0 |
| 20260505031017 | 10 | 340 | 11.3 | 22.5 | 0.48 | 1.63 | 1.63 | 82 | 1013.0 |
| 20260505030017 | 10 | 45 | 4.8 | 6.4 | 0.20 | 1.32 | 1.32 | 77 | 1012.7 |
| 20260505025017 | 11 | 46 | 4.8 | 6.4 | 0.03 | 1.17 | 1.17 | 73 | 1012.3 |
| 20260505024017 | 11 | 45 | 4.8 | 6.4 | 0.00 | 1.14 | 1.14 | 71 | 1012.2 |
| 20260505023019 | 11 | 48 | 4.8 | 8.0 | 0.03 | 1.14 | 1.14 | 70 | 1012.0 |
| 20260505022019 | 11 | 45 | 4.8 | 8.0 | 0.03 | 1.14 | 1.14 | 68 | 1011.9 |
| 20260505021017 | 11 | 48 | 3.2 | 6.4 | 0.03 | 1.14 | 1.14 | 67 | 1011.9 |
| 20260505020018 | 11 | 46 | 3.2 | 4.8 | 0.00 | 1.14 | 1.14 | 67 | 1012.2 |
| 20260505015037 | 12 | 45 | 11.3 | 38.6 | 0.00 | 1.14 | 1.14 | 66 | 1012.1 |
| 20260505014017 | 12 | 41 | 22.5 | 40.2 | 0.00 | 1.14 | 1.14 | 64 | 1011.9 |
| 20260505013018 | 13 | 43 | 6.4 | 35.4 | 0.00 | 1.14 | 1.14 | 58 | 1011.9 |
| 20260505012018 | 14 | 45 | 4.8 | 9.7 | 0.00 | 1.14 | 1.14 | 54 | 1011.6 |
| 20260505011017 | 14 | 42 | 8.0 | 19.3 | 0.00 | 1.14 | 1.14 | 50 | 1011.6 |
| 20260505010018 | 14 | 35 | 6.4 | 14.5 | 0.00 | 1.14 | 1.14 | 50 | 1011.3 |
| 20260505005018 | 14 | 38 | 8.0 | 16.1 | 0.00 | 1.14 | 1.14 | 50 | 1011.2 |
| 20260505004038 | 14 | 36 | 8.0 | 20.9 | 0.00 | 1.14 | 1.14 | 49 | 1011.1 |
| 20260505003018 | 14 | 43 | 8.0 | 19.3 | 0.00 | 1.14 | 1.14 | 50 | 1011.0 |
| 20260505002018 | 15 | 34 | 11.3 | 22.5 | 0.00 | 1.14 | 1.14 | 50 | 1010.8 |
| 20260505001018 | 15 | 30 | 16.1 | 32.2 | 0.00 | 1.14 | 1.14 | 47 | 1011.0 |
| 20260505000019 | 16 | 34 | 12.9 | 22.5 | 0.00 | 1.35 | 1.14 | 42 | 1010.7 |
| 20260504235018 | 16 | 39 | 11.3 | 19.3 | 0.00 | 1.35 | 1.14 | 39 | 1010.7 |
| 20260504234039 | 16 | 44 | 9.7 | 19.3 | 0.00 | 1.35 | 1.14 | 39 | 1010.4 |
| 20260504233019 | 16 | 31 | 12.9 | 20.9 | 0.00 | 1.35 | 1.14 | 41 | 1010.5 |
| 20260504232019 | 16 | 337 | 9.7 | 25.7 | 0.00 | 1.35 | 1.14 | 41 | 1010.5 |
| 20260504231016 | 16 | 16 | 8.0 | 27.4 | 0.00 | 1.35 | 1.14 | 42 | 1010.6 |
| 20260504230019 | 16 | 14 | 8.0 | 19.3 | 0.00 | 1.35 | 1.14 | 38 | 1010.5 |
| 20260504225019 | 16 | 7 | 8.0 | 14.5 | 0.05 | 1.35 | 1.14 | 38 | 1010.6 |
| 20260504224020 | 16 | 5 | 9.7 | 16.1 | 0.20 | 1.35 | 1.14 | 39 | 1010.5 |
| 20260504223017 | 16 | 20 | 14.5 | 25.7 | 0.38 | 1.37 | 1.14 | 37 | 1010.4 |
| 20260504222018 | 16 | 28 | 14.5 | 25.7 | 0.53 | 1.37 | 1.14 | 36 | 1009.9 |
| 20260504221020 | 17 | 42 | 16.1 | 32.2 | 0.64 | 1.37 | 1.12 | 36 | 1009.6 |
| 20260504220017 | 17 | 44 | 16.1 | 24.1 | 0.74 | 1.37 | 1.12 | 36 | 1009.4 |
| 20260504215037 | 17 | 44 | 17.7 | 25.7 | 0.69 | 1.35 | 1.09 | 34 | 1009.3 |
| 20260504214017 | 17 | 43 | 17.7 | 29.0 | 0.53 | 1.19 | 0.91 | 34 | 1009.4 |
| 20260504213037 | 17 | 46 | 19.3 | 32.2 | 0.36 | 1.07 | 0.74 | 35 | 1009.6 |
| 20260504212038 | 17 | 41 | 17.7 | 27.4 | 0.23 | 1.02 | 0.61 | 35 | 1009.7 |
| 20260504211018 | 18 | 41 | 20.9 | 30.6 | 0.13 | 0.91 | 0.51 | 32 | 1009.7 |
| 20260504210018 | 19 | 49 | 4.8 | 11.3 | 0.05 | 0.81 | 0.38 | 28 | 1009.7 |
| 20260504205038 | 20 | 49 | 3.2 | 3.2 | 0.13 | 0.81 | 0.38 | 27 | 1009.5 |
| 20260504204018 | 19 | 102 | 6.4 | 11.3 | 0.18 | 0.81 | 0.38 | 28 | 1009.5 |
| 20260504203058 | 18 | 220 | 8.0 | 14.5 | 0.18 | 0.81 | 0.38 | 28 | 1009.4 |
| 20260504202018 | 18 | 223 | 8.0 | 12.9 | 0.18 | 0.81 | 0.38 | 29 | 1009.5 |
| 20260504201019 | 18 | 224 | 8.0 | 11.3 | 0.18 | 0.81 | 0.38 | 33 | 1009.6 |
| 20260504200019 | 18 | 222 | 12.9 | 22.5 | 0.15 | 0.76 | 0.36 | 32 | 1009.5 |
| 20260504195016 | 20 | 229 | 16.1 | 53.1 | 0.08 | 0.69 | 0.28 | 28 | 1009.3 |
| 20260504194019 | 21 | 359 | 3.2 | 9.7 | 0.03 | 0.64 | 0.20 | 23 | 1009.1 |
| 20260504193019 | 21 | 305 | 3.2 | 9.7 | 0.03 | 0.64 | 0.20 | 22 | 1009.0 |
| 20260504192019 | 21 | 9 | 4.8 | 14.5 | 0.05 | 0.66 | 0.20 | 22 | 1009.0 |
| 20260504191020 | 21 | 13 | 8.0 | 14.5 | 0.05 | 0.66 | 0.20 | 22 | 1008.9 |
| 20260504190017 | 21 | 342 | 8.0 | 16.1 | 0.05 | 0.69 | 0.20 | 24 | 1009.0 |
| 20260504185016 | 21 | 13 | 6.4 | 12.9 | 0.05 | 0.71 | 0.20 | 23 | 1008.9 |